Time;durP1;ratioP1;P1;durP2;ratioP2;P2;SDS_P1;SDS_P2;PMS_P1;PMS_P2;Temp;Humidity;BMP_temperature;BMP_pressure;BME280_temperature;BME280_humidity;BME280_pressure;Samples;Min_cycle;Max_cycle;Signal;HPM_P1;HPM_P2
2022/11/13 00:01:43;;;;;;;;;0.00;0.00;;;;;;;;4732402;30;29657;-93
2022/11/13 00:04:09;;;;;;;;;0.00;0.00;;;;;;;;4750403;30;27836;-93
2022/11/13 00:06:34;;;;;;;;;0.00;0.00;;;;;;;;4734546;30;30326;-93
2022/11/13 00:09:00;;;;;;;;;0.00;0.00;;;;;;;;4739673;30;28750;-92
2022/11/13 00:11:25;;;;;;;;;0.00;0.00;;;;;;;;4732935;30;28536;-93
2022/11/13 00:13:50;;;;;;;;;0.00;0.00;;;;;;;;4734528;30;28451;-93
2022/11/13 00:16:17;;;;;;;;;0.00;0.00;;;;;;;;4732316;30;29775;-93
2022/11/13 00:18:43;;;;;;;;;0.00;0.00;;;;;;;;4733599;30;28919;-93
2022/11/13 00:21:15;;;;;;;;;0.00;0.00;;;;;;;;4745013;30;28595;-93
2022/11/13 00:23:40;;;;;;;;;0.00;0.00;;;;;;;;4740526;30;28441;-93
2022/11/13 00:26:07;;;;;;;;;0.00;0.00;;;;;;;;4747801;29;30293;-93
2022/11/13 00:28:32;;;;;;;;;0.00;0.00;;;;;;;;4732057;30;28831;-93
2022/11/13 00:30:58;;;;;;;;;0.00;0.00;;;;;;;;4740219;30;28616;-93
2022/11/13 00:33:23;;;;;;;;;0.00;0.00;;;;;;;;4745655;30;27947;-93
2022/11/13 00:35:49;;;;;;;;;0.00;0.00;;;;;;;;4734363;30;30398;-93
2022/11/13 00:38:14;;;;;;;;;0.00;0.00;;;;;;;;4733266;30;28706;-93
2022/11/13 00:40:39;;;;;;;;;0.00;0.00;;;;;;;;4742563;30;28593;-93
2022/11/13 00:43:04;;;;;;;;;0.00;0.00;;;;;;;;4739888;30;28756;-93
2022/11/13 00:45:29;;;;;;;;;0.00;0.00;;;;;;;;4743659;30;30280;-92
2022/11/13 00:47:55;;;;;;;;;0.00;0.00;;;;;;;;4734944;30;28542;-93
2022/11/13 00:50:20;;;;;;;;;0.00;0.00;;;;;;;;4738833;30;28466;-93
2022/11/13 00:52:45;;;;;;;;;0.00;0.00;;;;;;;;4741082;30;28347;-93
2022/11/13 00:55:11;;;;;;;;;0.00;0.00;;;;;;;;4739132;30;30656;-93
2022/11/13 00:57:36;;;;;;;;;30.00;30.00;;;;;;;;4734739;30;28469;-93
2022/11/13 01:00:02;;;;;;;;;0.00;0.00;;;;;;;;4739924;30;28505;-93
2022/11/13 01:02:28;;;;;;;;;0.67;0.67;;;;;;;;4735872;30;28812;-94
2022/11/13 01:04:53;;;;;;;;;0.00;0.00;;;;;;;;4740869;30;30174;-92
2022/11/13 01:07:18;;;;;;;;;0.00;0.00;;;;;;;;4743793;30;29337;-93
2022/11/13 01:09:44;;;;;;;;;0.00;0.00;;;;;;;;4738949;30;28379;-93
2022/11/13 01:12:09;;;;;;;;;0.00;0.00;;;;;;;;4737023;30;28481;-93
2022/11/13 01:14:34;;;;;;;;;0.00;0.00;;;;;;;;4734348;30;29916;-93
2022/11/13 01:16:59;;;;;;;;;0.00;0.00;;;;;;;;4736130;30;30098;-94
2022/11/13 01:19:24;;;;;;;;;0.00;0.00;;;;;;;;4740974;30;28675;-92
2022/11/13 01:21:50;;;;;;;;;0.00;0.00;;;;;;;;4738794;30;28541;-93
2022/11/13 01:24:15;;;;;;;;;3.00;3.00;;;;;;;;4740115;30;30075;-93
2022/11/13 01:26:43;;;;;;;;;59.25;52.75;;;;;;;;4738394;30;28560;-92
2022/11/13 01:29:09;;;;;;;;;0.00;0.00;;;;;;;;4739898;30;28497;-93
2022/11/13 01:31:34;;;;;;;;;0.00;0.00;;;;;;;;4743867;30;28454;-93
2022/11/13 01:33:59;;;;;;;;;0.00;0.00;;;;;;;;4734130;30;29711;-93
2022/11/13 01:36:26;;;;;;;;;0.00;0.00;;;;;;;;4735224;30;28437;-93
2022/11/13 01:38:51;;;;;;;;;10.00;10.00;;;;;;;;4739900;30;27954;-93
2022/11/13 01:41:16;;;;;;;;;1.00;1.00;;;;;;;;4744847;30;28541;-93
2022/11/13 01:43:42;;;;;;;;;0.00;0.00;;;;;;;;4738706;30;29792;-94
2022/11/13 01:46:12;;;;;;;;;0.00;0.00;;;;;;;;4731014;30;28640;-93
2022/11/13 01:48:38;;;;;;;;;0.00;0.00;;;;;;;;4731947;30;27879;-94
2022/11/13 01:51:07;;;;;;;;;0.00;0.00;;;;;;;;4742312;30;28986;-95
2022/11/13 01:53:32;;;;;;;;;3.00;3.00;;;;;;;;4736105;30;30767;-95
2022/11/13 01:55:58;;;;;;;;;0.67;0.67;;;;;;;;4738186;30;28839;-95
2022/11/13 01:58:23;;;;;;;;;0.00;0.00;;;;;;;;4732055;30;28473;-94
2022/11/13 02:00:48;;;;;;;;;0.00;0.00;;;;;;;;4732485;30;28588;-95
2022/11/13 02:03:13;;;;;;;;;14.67;14.67;;;;;;;;4722357;30;30116;-93
2022/11/13 02:05:39;;;;;;;;;0.00;0.00;;;;;;;;4732544;30;29642;-92
2022/11/13 02:08:04;;;;;;;;;0.00;0.00;;;;;;;;4732292;30;28356;-93
2022/11/13 02:10:29;;;;;;;;;1.00;1.00;;;;;;;;4737000;30;28499;-93
2022/11/13 02:12:55;;;;;;;;;0.00;0.00;;;;;;;;4732312;30;29828;-93
2022/11/13 02:15:24;;;;;;;;;1.75;1.75;;;;;;;;4743444;30;28938;-92
2022/11/13 02:17:55;;;;;;;;;0.00;0.00;;;;;;;;4747058;30;28438;-92
2022/11/13 02:20:25;;;;;;;;;0.00;0.00;;;;;;;;4746393;30;27912;-91
2022/11/13 02:22:55;;;;;;;;;0.00;0.00;;;;;;;;4719512;30;30330;-92
2022/11/13 02:25:23;;;;;;;;;0.00;0.00;;;;;;;;4733131;30;29786;-93
2022/11/13 02:27:49;;;;;;;;;9.00;9.00;;;;;;;;4746224;29;28569;-93
2022/11/13 02:30:17;;;;;;;;;0.00;0.00;;;;;;;;4737745;30;28538;-93
2022/11/13 02:32:44;;;;;;;;;0.00;0.00;;;;;;;;4738960;30;31125;-93
2022/11/13 02:35:09;;;;;;;;;0.00;0.00;;;;;;;;4730636;30;29476;-93
2022/11/13 02:37:35;;;;;;;;;0.00;0.00;;;;;;;;4738593;30;28661;-92
2022/11/13 02:40:00;;;;;;;;;6.00;6.00;;;;;;;;4737291;30;28325;-92
2022/11/13 02:42:25;;;;;;;;;28.00;28.00;;;;;;;;4737306;30;30190;-92
2022/11/13 02:44:50;;;;;;;;;0.00;0.00;;;;;;;;4738422;30;28702;-92
2022/11/13 02:47:15;;;;;;;;;0.00;0.00;;;;;;;;4737419;30;28387;-94
2022/11/13 02:49:41;;;;;;;;;0.67;0.67;;;;;;;;4731321;30;28531;-92
2022/11/13 02:52:06;;;;;;;;;0.00;0.00;;;;;;;;4730317;30;29756;-93
2022/11/13 02:54:31;;;;;;;;;3.00;3.00;;;;;;;;4737768;30;28484;-92
2022/11/13 02:56:56;;;;;;;;;0.00;0.00;;;;;;;;4730623;30;28110;-92
2022/11/13 02:59:22;;;;;;;;;4.00;4.00;;;;;;;;4733766;30;29850;-93
2022/11/13 03:01:47;;;;;;;;;0.00;0.00;;;;;;;;4733455;30;29882;-92
2022/11/13 03:04:12;;;;;;;;;0.00;0.00;;;;;;;;4731287;30;28472;-92
2022/11/13 03:06:37;;;;;;;;;3.00;3.00;;;;;;;;4727362;30;28329;-92
2022/11/13 03:09:02;;;;;;;;;3.00;3.00;;;;;;;;4734056;30;28588;-94
2022/11/13 03:11:28;;;;;;;;;0.00;0.00;;;;;;;;4734765;30;30223;-92
2022/11/13 03:13:53;;;;;;;;;0.00;0.00;;;;;;;;4731154;30;29563;-93
2022/11/13 03:16:18;;;;;;;;;0.00;0.00;;;;;;;;4731665;30;28506;-93
2022/11/13 03:18:43;;;;;;;;;0.00;0.00;;;;;;;;4736234;30;28665;-93
2022/11/13 03:21:11;;;;;;;;;6.33;6.33;;;;;;;;4731200;30;29858;-93
2022/11/13 03:23:36;;;;;;;;;7.00;7.00;;;;;;;;4734207;30;28960;-92
2022/11/13 03:26:06;;;;;;;;;0.00;0.00;;;;;;;;4734849;30;28545;-92
2022/11/13 03:28:32;;;;;;;;;51.00;48.00;;;;;;;;4732533;30;27902;-93
2022/11/13 03:30:57;;;;;;;;;0.00;0.00;;;;;;;;4735295;30;29960;-92
2022/11/13 03:33:23;;;;;;;;;0.00;0.00;;;;;;;;4730616;30;28864;-93
2022/11/13 03:35:48;;;;;;;;;18.00;18.00;;;;;;;;4742654;30;28580;-92
2022/11/13 03:38:13;;;;;;;;;0.00;0.00;;;;;;;;4733577;30;28434;-92
2022/11/13 03:40:38;;;;;;;;;0.00;0.00;;;;;;;;4733687;30;29965;-92
2022/11/13 03:43:03;;;;;;;;;2.00;2.00;;;;;;;;4733483;30;28717;-91
2022/11/13 03:45:29;;;;;;;;;0.00;0.00;;;;;;;;4734885;30;28456;-92
2022/11/13 03:47:54;;;;;;;;;4.00;4.00;;;;;;;;4738305;30;28661;-93
2022/11/13 03:50:19;;;;;;;;;0.00;0.00;;;;;;;;4736709;30;31332;-92
2022/11/13 03:52:44;;;;;;;;;0.00;0.00;;;;;;;;4740494;30;29731;-92
2022/11/13 03:55:09;;;;;;;;;0.00;0.00;;;;;;;;4735766;30;28422;-93
2022/11/13 03:57:35;;;;;;;;;0.00;0.00;;;;;;;;4735558;30;28549;-93
2022/11/13 04:00:00;;;;;;;;;0.00;0.00;;;;;;;;4732290;30;31383;-92
2022/11/13 04:02:25;;;;;;;;;0.00;0.00;;;;;;;;4733008;30;28500;-93
2022/11/13 04:04:50;;;;;;;;;1.00;1.00;;;;;;;;4741329;30;28586;-92
2022/11/13 04:07:16;;;;;;;;;0.00;0.00;;;;;;;;4743792;30;28597;-93
2022/11/13 04:09:41;;;;;;;;;0.00;0.00;;;;;;;;4735697;30;29894;-92
2022/11/13 04:12:06;;;;;;;;;3.00;3.00;;;;;;;;4737387;30;28817;-92
2022/11/13 04:14:31;;;;;;;;;3.67;3.67;;;;;;;;4735963;30;28506;-93
2022/11/13 04:16:56;;;;;;;;;0.00;0.00;;;;;;;;4742651;30;28461;-93
2022/11/13 04:19:22;;;;;;;;;0.00;0.00;;;;;;;;4733130;30;30234;-93
2022/11/13 04:21:47;;;;;;;;;0.00;0.00;;;;;;;;4732365;30;29499;-92
2022/11/13 04:24:12;;;;;;;;;0.00;0.00;;;;;;;;4739891;30;28510;-93
2022/11/13 04:26:37;;;;;;;;;0.00;0.00;;;;;;;;4718538;30;28600;-93
2022/11/13 04:29:03;;;;;;;;;9.00;9.00;;;;;;;;4732683;30;30075;-93
2022/11/13 04:31:28;;;;;;;;;0.00;0.00;;;;;;;;4737010;30;29431;-93
2022/11/13 04:33:53;;;;;;;;;0.00;0.00;;;;;;;;4737922;30;28363;-93
2022/11/13 04:36:18;;;;;;;;;0.00;0.00;;;;;;;;4733132;30;29679;-92
2022/11/13 04:38:43;;;;;;;;;6.00;6.00;;;;;;;;4743185;30;28578;-92
2022/11/13 04:43:55;;;;;;;;;0.00;0.00;;;;;;;;4737367;30;28537;-92
2022/11/13 04:46:20;;;;;;;;;0.00;0.00;;;;;;;;4741755;30;28517;-92
2022/11/13 04:48:45;;;;;;;;;0.00;0.00;;;;;;;;4742317;30;29953;-92
2022/11/13 04:51:11;;;;;;;;;0.00;0.00;;;;;;;;4740640;30;28796;-92
2022/11/13 04:53:36;;;;;;;;;0.00;0.00;;;;;;;;4737487;30;28455;-93
2022/11/13 04:56:01;;;;;;;;;0.00;0.00;;;;;;;;4735848;30;28525;-92
2022/11/13 04:58:26;;;;;;;;;0.00;0.00;;;;;;;;4732029;30;29914;-92
2022/11/13 05:00:52;;;;;;;;;0.00;0.00;;;;;;;;4731230;30;28968;-92
2022/11/13 05:03:17;;;;;;;;;0.00;0.00;;;;;;;;4736198;30;28594;-92
2022/11/13 05:05:42;;;;;;;;;0.00;0.00;;;;;;;;4740933;30;28443;-93
2022/11/13 05:08:07;;;;;;;;;0.00;0.00;;;;;;;;4732773;30;30263;-92
2022/11/13 05:10:33;;;;;;;;;0.00;0.00;;;;;;;;4742620;30;28577;-93
2022/11/13 05:12:58;;;;;;;;;0.00;0.00;;;;;;;;4739129;30;27838;-93
2022/11/13 05:15:23;;;;;;;;;0.00;0.00;;;;;;;;4738881;30;27916;-93
2022/11/13 05:17:48;;;;;;;;;0.00;0.00;;;;;;;;4737639;30;28259;-92
2022/11/13 05:20:13;;;;;;;;;0.00;0.00;;;;;;;;4735973;30;28714;-93
2022/11/13 05:22:39;;;;;;;;;0.00;0.00;;;;;;;;4739618;30;28501;-92
2022/11/13 05:25:04;;;;;;;;;0.00;0.00;;;;;;;;4740991;30;28582;-92
2022/11/13 05:27:29;;;;;;;;;0.00;0.00;;;;;;;;4745704;30;30170;-93
2022/11/13 05:29:54;;;;;;;;;0.00;0.00;;;;;;;;4731870;30;28873;-93
2022/11/13 05:32:20;;;;;;;;;0.00;0.00;;;;;;;;4738883;30;28450;-93
2022/11/13 05:34:45;;;;;;;;;0.00;0.00;;;;;;;;4735524;30;28480;-92
2022/11/13 05:37:10;;;;;;;;;0.00;0.00;;;;;;;;4738552;30;29775;-93
2022/11/13 05:39:35;;;;;;;;;0.00;0.00;;;;;;;;4732871;30;28529;-93
2022/11/13 05:42:00;;;;;;;;;0.00;0.00;;;;;;;;4716962;30;28455;-92
2022/11/13 05:44:26;;;;;;;;;0.00;0.00;;;;;;;;4737577;30;28517;-93
2022/11/13 05:46:51;;;;;;;;;0.00;0.00;;;;;;;;4738173;30;29834;-92
2022/11/13 05:49:16;;;;;;;;;0.00;0.00;;;;;;;;4732452;30;28562;-92
2022/11/13 05:51:41;;;;;;;;;0.00;0.00;;;;;;;;4734354;30;28423;-93
2022/11/13 05:54:07;;;;;;;;;0.00;0.00;;;;;;;;4738382;29;28510;-91
2022/11/13 05:56:34;;;;;;;;;0.00;0.00;;;;;;;;4739844;30;30824;-91
2022/11/13 05:59:00;;;;;;;;;0.00;0.00;;;;;;;;4736096;29;28997;-92
2022/11/13 06:01:25;;;;;;;;;0.00;0.00;;;;;;;;4740660;30;28156;-93
2022/11/13 06:03:50;;;;;;;;;0.00;0.00;;;;;;;;4735809;29;28327;-93
2022/11/13 06:06:17;;;;;;;;;0.00;0.00;;;;;;;;4741180;30;29965;-92
2022/11/13 06:08:42;;;;;;;;;0.00;0.00;;;;;;;;4738047;29;28904;-92
2022/11/13 06:11:08;;;;;;;;;0.00;0.00;;;;;;;;4742393;30;27846;-93
2022/11/13 06:13:34;;;;;;;;;0.00;0.00;;;;;;;;4734254;30;28423;-92
2022/11/13 06:16:00;;;;;;;;;0.00;0.00;;;;;;;;4734059;30;29853;-91
2022/11/13 06:18:26;;;;;;;;;0.00;0.00;;;;;;;;4739579;29;29060;-93
2022/11/13 06:20:51;;;;;;;;;0.00;0.00;;;;;;;;4746184;29;28500;-93
2022/11/13 06:23:16;;;;;;;;;0.00;0.00;;;;;;;;4742724;30;28557;-93
2022/11/13 06:25:42;;;;;;;;;0.00;0.00;;;;;;;;4735276;29;29717;-94
2022/11/13 06:28:07;;;;;;;;;0.00;0.00;;;;;;;;4736887;30;29772;-93
2022/11/13 06:30:32;;;;;;;;;0.00;0.00;;;;;;;;4736083;29;28360;-93
2022/11/13 06:32:57;;;;;;;;;0.00;0.00;;;;;;;;4741977;30;28742;-93
2022/11/13 06:35:23;;;;;;;;;0.00;0.00;;;;;;;;4734418;29;30684;-94
2022/11/13 06:37:48;;;;;;;;;0.00;0.00;;;;;;;;4735472;29;28707;-93
2022/11/13 06:40:13;;;;;;;;;0.00;0.00;;;;;;;;4746411;29;28471;-93
2022/11/13 06:42:39;;;;;;;;;0.00;0.00;;;;;;;;4757564;29;27822;-93
2022/11/13 06:45:04;;;;;;;;;0.00;0.00;;;;;;;;4735881;30;30403;-93
2022/11/13 06:47:29;;;;;;;;;0.00;0.00;;;;;;;;4737060;30;28782;-93
2022/11/13 06:49:55;;;;;;;;;0.00;0.00;;;;;;;;4738084;29;28552;-93
2022/11/13 06:52:20;;;;;;;;;0.00;0.00;;;;;;;;4736746;29;28576;-93
2022/11/13 06:54:45;;;;;;;;;0.00;0.00;;;;;;;;4738358;29;31191;-93
2022/11/13 06:57:10;;;;;;;;;0.00;0.00;;;;;;;;4747063;29;29722;-94
2022/11/13 06:59:35;;;;;;;;;0.00;0.00;;;;;;;;4743206;29;27801;-93
2022/11/13 07:02:01;;;;;;;;;0.00;0.00;;;;;;;;4740499;29;27998;-92
2022/11/13 07:04:26;;;;;;;;;0.00;0.00;;;;;;;;4741735;29;30925;-92
2022/11/13 07:06:51;;;;;;;;;0.00;0.00;;;;;;;;4743431;30;28638;-93
2022/11/13 07:09:16;;;;;;;;;0.00;0.00;;;;;;;;4736817;30;28473;-93
2022/11/13 07:11:42;;;;;;;;;0.00;0.00;;;;;;;;4736838;30;28289;-93
2022/11/13 07:14:09;;;;;;;;;0.00;0.00;;;;;;;;4737053;29;30881;-94
2022/11/13 07:16:34;;;;;;;;;0.00;0.00;;;;;;;;4747072;29;28586;-93
2022/11/13 07:19:00;;;;;;;;;0.00;0.00;;;;;;;;4740249;29;27897;-93
2022/11/13 07:21:25;;;;;;;;;0.00;0.00;;;;;;;;4739933;29;28498;-93
2022/11/13 07:23:50;;;;;;;;;0.00;0.00;;;;;;;;4763839;29;28693;-94
2022/11/13 07:26:16;;;;;;;;;0.00;0.00;;;;;;;;4746213;29;28596;-94
2022/11/13 07:28:41;;;;;;;;;0.00;0.00;;;;;;;;4742512;29;28669;-93
2022/11/13 07:31:06;;;;;;;;;0.00;0.00;;;;;;;;4740142;29;28540;-93
2022/11/13 07:33:32;;;;;;;;;0.00;0.00;;;;;;;;4744811;29;29736;-93
2022/11/13 07:35:58;;;;;;;;;9.00;9.00;;;;;;;;4736940;30;28556;-93
2022/11/13 07:38:23;;;;;;;;;0.00;0.00;;;;;;;;4741119;29;28434;-93
2022/11/13 07:40:48;;;;;;;;;0.00;0.00;;;;;;;;4749346;29;28500;-93
2022/11/13 07:43:13;;;;;;;;;0.00;0.00;;;;;;;;4740386;29;30911;-93
2022/11/13 07:45:39;;;;;;;;;0.00;0.00;;;;;;;;4744350;29;29552;-92
2022/11/13 07:48:04;;;;;;;;;3.00;3.00;;;;;;;;4763035;29;28296;-93
2022/11/13 07:50:30;;;;;;;;;0.00;0.00;;;;;;;;4755670;29;28428;-93
2022/11/13 07:52:56;;;;;;;;;0.00;0.00;;;;;;;;4748169;29;29948;-93
2022/11/13 07:55:22;;;;;;;;;0.00;0.00;;;;;;;;4747868;29;29819;-93
2022/11/13 07:57:47;;;;;;;;;0.00;0.00;;;;;;;;4736512;30;29155;-93
2022/11/13 08:00:12;;;;;;;;;0.00;0.00;;;;;;;;4746201;29;28500;-94
2022/11/13 08:02:37;;;;;;;;;0.00;0.00;;;;;;;;4738405;29;29912;-93
2022/11/13 08:05:03;;;;;;;;;0.00;0.00;;;;;;;;4735652;30;28599;-93
2022/11/13 08:07:28;;;;;;;;;0.00;0.00;;;;;;;;4741980;29;28060;-88
2022/11/13 08:09:53;;;;;;;;;0.00;0.00;;;;;;;;4737605;30;28598;-89
2022/11/13 08:12:18;;;;;;;;;0.00;0.00;;;;;;;;4748516;29;28853;-89
2022/11/13 08:14:43;;;;;;;;;0.00;0.00;;;;;;;;4751456;29;28850;-87
2022/11/13 08:17:09;;;;;;;;;0.00;0.00;;;;;;;;4737515;29;28604;-90
2022/11/13 08:19:34;;;;;;;;;0.00;0.00;;;;;;;;4752277;29;28426;-90
2022/11/13 08:21:59;;;;;;;;;0.00;0.00;;;;;;;;4754665;29;28459;-89
2022/11/13 08:24:24;;;;;;;;;0.00;0.00;;;;;;;;4755709;29;28759;-88
2022/11/13 08:26:49;;;;;;;;;0.00;0.00;;;;;;;;4740069;29;28522;-88
2022/11/13 08:29:14;;;;;;;;;0.00;0.00;;;;;;;;4756218;29;29519;-88
2022/11/13 08:31:40;;;;;;;;;0.00;0.00;;;;;;;;4758202;29;28934;-88
2022/11/13 08:34:05;;;;;;;;;0.00;0.00;;;;;;;;4739771;29;29346;-88
2022/11/13 08:36:30;;;;;;;;;0.00;0.00;;;;;;;;4735678;30;28662;-88
2022/11/13 08:38:55;;;;;;;;;0.00;0.00;;;;;;;;4739461;29;28564;-89
2022/11/13 08:41:20;;;;;;;;;0.00;0.00;;;;;;;;4749958;29;28372;-88
2022/11/13 08:43:45;;;;;;;;;0.00;0.00;;;;;;;;4759560;29;28593;-89
2022/11/13 08:46:11;;;;;;;;;0.00;0.00;;;;;;;;4779825;29;9656;-90
2022/11/13 08:48:37;;;;;;;;;0.00;0.00;;;;;;;;4773449;29;26604;-88
2022/11/13 08:51:02;;;;;;;;;0.00;0.00;;;;;;;;4751885;29;29589;-90
2022/11/13 08:53:27;;;;;;;;;0.00;0.00;;;;;;;;4743678;29;29675;-89
2022/11/13 08:55:52;;;;;;;;;0.00;0.00;;;;;;;;4749180;29;28644;-88
2022/11/13 08:58:17;;;;;;;;;0.00;0.00;;;;;;;;4737051;29;28556;-87
2022/11/13 09:00:43;;;;;;;;;0.00;0.00;;;;;;;;4736776;29;31015;-88
2022/11/13 09:03:09;;;;;;;;;0.00;0.00;;;;;;;;4748947;29;28482;-89
2022/11/13 09:05:35;;;;;;;;;0.00;0.00;;;;;;;;4748922;29;28591;-86
2022/11/13 09:08:00;;;;;;;;;0.00;0.00;;;;;;;;4736428;29;28358;-86
2022/11/13 09:10:26;;;;;;;;;0.00;0.00;;;;;;;;4748952;29;28529;-86
2022/11/13 09:12:56;;;;;;;;;0.00;0.00;;;;;;;;4754245;29;28756;-84
2022/11/13 09:15:22;;;;;;;;;0.00;0.00;;;;;;;;4767478;29;28473;-89
2022/11/13 09:17:47;;;;;;;;;0.00;0.00;;;;;;;;4755600;29;9787;-87
2022/11/13 09:20:12;;;;;;;;;0.00;0.00;;;;;;;;4766149;29;8888;-86
2022/11/13 09:22:37;;;;;;;;;0.00;0.00;;;;;;;;4775085;29;12532;-86
2022/11/13 09:25:02;;;;;;;;;0.00;0.00;;;;;;;;4745531;29;27873;-87
2022/11/13 09:27:27;;;;;;;;;0.00;0.00;;;;;;;;4751637;29;28969;-86
2022/11/13 09:29:53;;;;;;;;;0.00;0.00;;;;;;;;4773678;29;20965;-86
2022/11/13 09:32:18;;;;;;;;;0.00;0.00;;;;;;;;4758299;29;9724;-86
2022/11/13 09:34:43;;;;;;;;;0.00;0.00;;;;;;;;4759704;29;9693;-87
2022/11/13 09:37:08;;;;;;;;;0.00;0.00;;;;;;;;4769213;29;26530;-87
2022/11/13 09:39:33;;;;;;;;;0.00;0.00;;;;;;;;4762176;29;9267;-87
2022/11/13 09:42:04;;;;;;;;;0.00;0.00;;;;;;;;4765008;29;27815;-87
2022/11/13 09:44:30;;;;;;;;;0.00;0.00;;;;;;;;4733145;30;28454;-87
2022/11/13 09:47:04;;;;;;;;;0.00;0.00;;;;;;;;4749829;29;28644;-87
2022/11/13 09:49:31;;;;;;;;;0.00;0.00;;;;;;;;4774810;29;26289;-86
2022/11/13 09:52:03;;;;;;;;;0.00;0.00;;;;;;;;4772653;29;23663;-86
2022/11/13 09:54:28;;;;;;;;;0.00;0.00;;;;;;;;4779483;29;24801;-86
2022/11/13 09:57:12;;;;;;;;;0.00;0.00;;;;;;;;4750183;29;28502;-87
2022/11/13 09:59:46;;;;;;;;;0.00;0.00;;;;;;;;4735199;29;30489;-86
2022/11/13 10:02:14;;;;;;;;;0.00;0.00;;;;;;;;4739358;29;28823;-87
2022/11/13 10:04:54;;;;;;;;;0.00;0.00;;;;;;;;4772718;29;24581;-86
2022/11/13 10:07:40;;;;;;;;;0.00;0.00;;;;;;;;4747903;29;28344;-86
2022/11/13 10:10:24;;;;;;;;;0.00;0.00;;;;;;;;4724569;29;30917;-86
2022/11/13 10:12:51;;;;;;;;;0.00;0.00;;;;;;;;4740710;29;28898;-86
2022/11/13 10:15:17;;;;;;;;;0.00;0.00;;;;;;;;4757763;29;28498;-86
2022/11/13 10:17:54;;;;;;;;;0.00;0.00;;;;;;;;4736265;29;28633;-86
2022/11/13 10:20:42;;;;;;;;;0.00;0.00;;;;;;;;4737339;30;29467;-86
2022/11/13 10:23:07;;;;;;;;;0.00;0.00;;;;;;;;4743605;29;28492;-86
2022/11/13 10:25:34;;;;;;;;;0.00;0.00;;;;;;;;4737934;29;28425;-86
2022/11/13 10:28:01;;;;;;;;;0.00;0.00;;;;;;;;4730344;29;29658;-86
2022/11/13 10:30:28;;;;;;;;;0.00;0.00;;;;;;;;4733235;30;30281;-86
2022/11/13 10:32:53;;;;;;;;;0.00;0.00;;;;;;;;4755638;29;28501;-85
2022/11/13 10:35:29;;;;;;;;;0.00;0.00;;;;;;;;4744400;29;28531;-85
2022/11/13 10:38:02;;;;;;;;;0.00;0.00;;;;;;;;4752208;29;28571;-88
2022/11/13 10:40:29;;;;;;;;;0.00;0.00;;;;;;;;4755511;29;29357;-88
2022/11/13 10:43:03;;;;;;;;;0.00;0.00;;;;;;;;4740500;29;28874;-86
2022/11/13 10:45:28;;;;;;;;;0.00;0.00;;;;;;;;4755731;29;28485;-87
2022/11/13 10:47:54;;;;;;;;;0.00;0.00;;;;;;;;4753596;29;8967;-86
2022/11/13 10:50:29;;;;;;;;;0.00;0.00;;;;;;;;4752950;30;21513;-87
2022/11/13 10:52:55;;;;;;;;;0.00;0.00;;;;;;;;4776554;29;21052;-86
2022/11/13 10:55:20;;;;;;;;;0.00;0.00;;;;;;;;4762798;29;11266;-86
2022/11/13 10:57:56;;;;;;;;;0.00;0.00;;;;;;;;4757021;29;19929;-87
2022/11/13 11:00:23;;;;;;;;;0.00;0.00;;;;;;;;4760184;29;8861;-87
2022/11/13 11:02:49;;;;;;;;;0.00;0.00;;;;;;;;4749318;29;29019;-86
2022/11/13 11:05:14;;;;;;;;;0.00;0.00;;;;;;;;4777079;29;9717;-86
2022/11/13 11:07:40;;;;;;;;;0.00;0.00;;;;;;;;4774599;29;27440;-86
2022/11/13 11:10:17;;;;;;;;;0.00;0.00;;;;;;;;4772155;29;23649;-86
2022/11/13 11:12:50;;;;;;;;;0.00;0.00;;;;;;;;4756519;29;27971;-86
2022/11/13 11:15:27;;;;;;;;;0.00;0.00;;;;;;;;4757543;30;27747;-86
2022/11/13 11:18:00;;;;;;;;;0.00;0.00;;;;;;;;4753140;29;16425;-86
2022/11/13 11:20:35;;;;;;;;;0.00;0.00;;;;;;;;4750461;29;15492;-86
2022/11/13 11:23:15;;;;;;;;;0.00;0.00;;;;;;;;4761374;30;9669;-86
2022/11/13 11:25:49;;;;;;;;;0.00;0.00;;;;;;;;4773686;29;28509;-86
2022/11/13 11:28:37;;;;;;;;;0.00;0.00;;;;;;;;4741384;29;28582;-86
2022/11/13 11:31:15;;;;;;;;;0.00;0.00;;;;;;;;4746774;29;28754;-86
2022/11/13 11:33:47;;;;;;;;;0.00;0.00;;;;;;;;4744005;29;29338;-86
2022/11/13 11:36:27;;;;;;;;;0.00;0.00;;;;;;;;4758439;29;8876;-86
2022/11/13 11:38:59;;;;;;;;;0.00;0.00;;;;;;;;4771251;29;25697;-85
2022/11/13 11:41:33;;;;;;;;;0.00;0.00;;;;;;;;4771755;29;28640;-86
2022/11/13 11:44:00;;;;;;;;;0.00;0.00;;;;;;;;4761801;29;9787;-86
2022/11/13 11:46:28;;;;;;;;;0.00;0.00;;;;;;;;4776766;29;27357;-86
2022/11/13 11:48:58;;;;;;;;;0.00;0.00;;;;;;;;4750225;29;29727;-85
2022/11/13 11:51:25;;;;;;;;;0.00;0.00;;;;;;;;4774408;29;25612;-89
2022/11/13 11:53:50;;;;;;;;;0.00;0.00;;;;;;;;4777378;29;26409;-87
2022/11/13 11:56:18;;;;;;;;;0.00;0.00;;;;;;;;4772288;29;18331;-88
2022/11/13 11:58:55;;;;;;;;;0.00;0.00;;;;;;;;4766888;29;28500;-88
2022/11/13 12:01:36;;;;;;;;;0.00;0.00;;;;;;;;4759388;29;29030;-87
2022/11/13 12:04:16;;;;;;;;;0.00;0.00;;;;;;;;4760706;29;29185;-88
2022/11/13 12:06:50;;;;;;;;;0.00;0.00;;;;;;;;4750628;30;24166;-88
2022/11/13 12:09:27;;;;;;;;;0.00;0.00;;;;;;;;4763434;29;28793;-91
2022/11/13 12:11:55;;;;;;;;;0.00;0.00;;;;;;;;4772293;29;27809;-91
2022/11/13 12:14:27;;;;;;;;;0.00;0.00;;;;;;;;4747246;29;29806;-90
2022/11/13 12:17:01;;;;;;;;;0.00;0.00;;;;;;;;4772581;29;8848;-86
2022/11/13 12:19:35;;;;;;;;;0.00;0.00;;;;;;;;4770366;29;11715;-89
2022/11/13 12:22:02;;;;;;;;;0.00;0.00;;;;;;;;4757439;29;28509;-90
2022/11/13 12:24:46;;;;;;;;;0.00;0.00;;;;;;;;4755225;29;28609;-90
2022/11/13 12:27:19;;;;;;;;;0.00;0.00;;;;;;;;4759149;29;24168;-91
2022/11/13 12:30:02;;;;;;;;;0.00;0.00;;;;;;;;4736116;30;28433;-92
2022/11/13 12:32:33;;;;;;;;;0.00;0.00;;;;;;;;4744832;29;30753;-91
2022/11/13 12:35:02;;;;;;;;;0.00;0.00;;;;;;;;4766603;29;27925;-91
2022/11/13 12:37:32;;;;;;;;;0.00;0.00;;;;;;;;4763525;29;8862;-91
2022/11/13 12:40:03;;;;;;;;;0.00;0.00;;;;;;;;4758235;29;25018;-91
2022/11/13 12:42:40;;;;;;;;;0.00;0.00;;;;;;;;4738015;29;30197;-91
2022/11/13 12:45:29;;;;;;;;;0.00;0.00;;;;;;;;4747155;29;28633;-90
2022/11/13 12:47:54;;;;;;;;;0.00;0.00;;;;;;;;4737377;29;28428;-90
2022/11/13 12:50:29;;;;;;;;;0.00;0.00;;;;;;;;4754305;29;28580;-91
2022/11/13 12:53:02;;;;;;;;;0.00;0.00;;;;;;;;4735744;30;30382;-89
2022/11/13 12:55:29;;;;;;;;;0.00;0.00;;;;;;;;4744865;29;29021;-89
2022/11/13 12:57:56;;;;;;;;;0.00;0.00;;;;;;;;4746677;29;28840;-90
2022/11/13 13:00:23;;;;;;;;;0.00;0.00;;;;;;;;4762849;29;28020;-90
2022/11/13 13:03:14;;;;;;;;;0.00;0.00;;;;;;;;4770668;29;18175;-90
2022/11/13 13:05:52;;;;;;;;;0.00;0.00;;;;;;;;4746847;29;21872;-90
2022/11/13 13:08:36;;;;;;;;;0.00;0.00;;;;;;;;4753756;29;28495;-90
2022/11/13 13:11:04;;;;;;;;;0.00;0.00;;;;;;;;4734427;29;29353;-90
2022/11/13 13:13:47;;;;;;;;;0.00;0.00;;;;;;;;4751025;29;28418;-89
2022/11/13 13:16:20;;;;;;;;;0.00;0.00;;;;;;;;4735904;29;29089;-90
2022/11/13 13:18:46;;;;;;;;;0.00;0.00;;;;;;;;4732666;29;28449;-90
2022/11/13 13:21:13;;;;;;;;;0.00;0.00;;;;;;;;4735659;30;28566;-90
2022/11/13 13:23:43;;;;;;;;;0.00;0.00;;;;;;;;4738763;29;29214;-91
2022/11/13 13:26:11;;;;;;;;;0.00;0.00;;;;;;;;4750847;29;28561;-91
2022/11/13 13:28:38;;;;;;;;;0.00;0.00;;;;;;;;4758077;29;28505;-91
2022/11/13 13:31:23;;;;;;;;;0.00;0.00;;;;;;;;4734499;29;28667;-90
2022/11/13 13:34:07;;;;;;;;;0.00;0.00;;;;;;;;4654515;30;30327;-90
2022/11/13 13:36:32;;;;;;;;;0.00;0.00;;;;;;;;4662277;30;28053;-90
2022/11/13 13:39:04;;;;;;;;;0.00;0.00;;;;;;;;4661805;30;27862;-90
2022/11/13 13:41:29;;;;;;;;;0.00;0.00;;;;;;;;4668344;30;10338;-91
2022/11/13 13:44:06;;;;;;;;;0.00;0.00;;;;;;;;4665450;30;27906;-91
2022/11/13 13:46:33;;;;;;;;;0.00;0.00;;;;;;;;4644477;30;28695;-90
2022/11/13 13:49:03;;;;;;;;;0.00;0.00;;;;;;;;4651847;30;28639;-90
2022/11/13 13:51:34;;;;;;;;;0.00;0.00;;;;;;;;4647129;30;28681;-90
2022/11/13 13:54:01;;;;;;;;;0.00;0.00;;;;;;;;4651478;30;30240;-90
2022/11/13 13:56:26;;;;;;;;;0.00;0.00;;;;;;;;4655684;30;28715;-90
2022/11/13 13:58:52;;;;;;;;;0.00;0.00;;;;;;;;4662439;30;28670;-89
2022/11/13 14:01:31;;;;;;;;;0.00;0.00;;;;;;;;4647995;30;28652;-90
2022/11/13 14:04:12;;;;;;;;;0.00;0.00;;;;;;;;4666450;30;28562;-90
2022/11/13 14:06:46;;;;;;;;;0.00;0.00;;;;;;;;4655428;30;29155;-90
2022/11/13 14:09:18;;;;;;;;;0.00;0.00;;;;;;;;4665536;30;28543;-90
2022/11/13 14:11:44;;;;;;;;;0.00;0.00;;;;;;;;4721673;30;28452;-90
2022/11/13 14:14:14;;;;;;;;;0.00;0.00;;;;;;;;4730711;29;30403;-90
2022/11/13 14:16:50;;;;;;;;;0.00;0.00;;;;;;;;4751735;29;28690;-91
2022/11/13 14:19:15;;;;;;;;;0.00;0.00;;;;;;;;4732103;29;28521;-93
2022/11/13 14:21:41;;;;;;;;;0.00;0.00;;;;;;;;4731807;30;28360;-94
2022/11/13 14:24:15;;;;;;;;;0.00;0.00;;;;;;;;4736094;29;30401;-95
2022/11/13 14:26:41;;;;;;;;;0.00;0.00;;;;;;;;4752033;29;30000;-95
2022/11/13 14:29:14;;;;;;;;;0.00;0.00;;;;;;;;4742483;29;28471;-94
2022/11/13 14:31:40;;;;;;;;;0.00;0.00;;;;;;;;4740333;30;28545;-94
2022/11/13 14:34:09;;;;;;;;;0.00;0.00;;;;;;;;4741922;29;30057;-94
2022/11/13 14:36:36;;;;;;;;;0.00;0.00;;;;;;;;4736345;30;28672;-93
2022/11/13 14:39:03;;;;;;;;;0.00;0.00;;;;;;;;4740930;29;28592;-94
2022/11/13 14:41:28;;;;;;;;;0.00;0.00;;;;;;;;4738067;29;28773;-94
2022/11/13 14:43:53;;;;;;;;;0.00;0.00;;;;;;;;4736678;29;31380;-94
2022/11/13 14:46:33;;;;;;;;;0.00;0.00;;;;;;;;4743661;29;28543;-94
2022/11/13 14:48:59;;;;;;;;;0.00;0.00;;;;;;;;4744074;29;28526;-94